KPPA/PPA METAR and TAF weather

Enter ICAO airport designator
Station Type Date Time Source
KPPA METAR 2020/03/29 14:35 UTC NOAA

KPPA 291435Z AUTO 27006KT 10SM CLR 05/01 A3020 RMK AO2 T00530009


Station Type Date Time Source
KPPA Decoded METAR 2020/03/29 14:35 UTC NOAA

Pampa, Perry Lefors Field Airport, TX, United States (KPPA) 35-36-46N 100-59-46W
Mar 29, 2020 - 10:35 AM EDT / 2020.03.29 1435 UTC
Wind: from the W (270 degrees) at 7 MPH (6 KT):0
Visibility: 10 mile(s):0
Sky conditions: clear
Temperature: 41.5 F (5.3 C)
Dew Point: 33.6 F (0.9 C)
Relative Humidity: 73%
Pressure (altimeter): 30.2 in. Hg (1022 hPa)
ob: KPPA 291435Z AUTO 27006KT 10SM CLR 05/01 A3020 RMK AO2 T00530009
cycle: 14

Station Type Date Time Source
KPPA TAF UTC NOAA

Error!

Example: see airport list